sensor_id;sensor_type;location;lat;lon;timestamp;P1;durP1;ratioP1;P2;durP2;ratioP2
3771;SDS011;1901;48.172;12.824;2023-09-19T00:01:14;2.30;;;1.70;;
3771;SDS011;1901;48.172;12.824;2023-09-19T00:03:46;4.23;;;1.97;;
3771;SDS011;1901;48.172;12.824;2023-09-19T00:06:13;2.97;;;1.80;;
3771;SDS011;1901;48.172;12.824;2023-09-19T00:08:40;2.50;;;2.10;;
3771;SDS011;1901;48.172;12.824;2023-09-19T00:11:09;2.17;;;1.87;;
3771;SDS011;1901;48.172;12.824;2023-09-19T00:13:36;2.33;;;1.80;;
3771;SDS011;1901;48.172;12.824;2023-09-19T00:16:08;2.60;;;1.90;;
3771;SDS011;1901;48.172;12.824;2023-09-19T00:18:35;3.90;;;2.10;;
3771;SDS011;1901;48.172;12.824;2023-09-19T00:21:04;7.00;;;1.90;;
3771;SDS011;1901;48.172;12.824;2023-09-19T00:23:32;2.70;;;1.70;;
3771;SDS011;1901;48.172;12.824;2023-09-19T00:26:00;2.33;;;1.83;;
3771;SDS011;1901;48.172;12.824;2023-09-19T00:28:27;3.37;;;1.90;;
3771;SDS011;1901;48.172;12.824;2023-09-19T00:30:55;2.10;;;1.80;;
3771;SDS011;1901;48.172;12.824;2023-09-19T00:33:26;3.17;;;2.07;;
3771;SDS011;1901;48.172;12.824;2023-09-19T00:35:54;4.70;;;1.97;;
3771;SDS011;1901;48.172;12.824;2023-09-19T00:38:23;1.80;;;1.60;;
3771;SDS011;1901;48.172;12.824;2023-09-19T00:40:52;2.20;;;1.80;;
3771;SDS011;1901;48.172;12.824;2023-09-19T00:43:19;5.27;;;1.73;;
3771;SDS011;1901;48.172;12.824;2023-09-19T00:45:48;3.10;;;1.87;;
3771;SDS011;1901;48.172;12.824;2023-09-19T00:48:16;2.33;;;2.07;;
3771;SDS011;1901;48.172;12.824;2023-09-19T00:50:44;4.87;;;1.83;;
3771;SDS011;1901;48.172;12.824;2023-09-19T00:53:13;7.70;;;2.10;;
3771;SDS011;1901;48.172;12.824;2023-09-19T00:55:42;2.80;;;2.03;;
3771;SDS011;1901;48.172;12.824;2023-09-19T00:58:09;3.60;;;2.20;;
3771;SDS011;1901;48.172;12.824;2023-09-19T01:00:37;2.53;;;1.70;;
3771;SDS011;1901;48.172;12.824;2023-09-19T01:03:04;1.80;;;1.53;;
3771;SDS011;1901;48.172;12.824;2023-09-19T01:05:32;2.97;;;1.63;;
3771;SDS011;1901;48.172;12.824;2023-09-19T01:08:01;3.13;;;1.90;;
3771;SDS011;1901;48.172;12.824;2023-09-19T01:10:29;2.67;;;2.00;;
3771;SDS011;1901;48.172;12.824;2023-09-19T01:13:01;2.83;;;1.60;;
3771;SDS011;1901;48.172;12.824;2023-09-19T01:15:32;2.80;;;1.40;;
3771;SDS011;1901;48.172;12.824;2023-09-19T01:18:08;3.73;;;1.83;;
3771;SDS011;1901;48.172;12.824;2023-09-19T01:20:39;3.00;;;1.70;;
3771;SDS011;1901;48.172;12.824;2023-09-19T01:23:13;2.53;;;1.87;;
3771;SDS011;1901;48.172;12.824;2023-09-19T01:25:49;2.37;;;1.83;;
3771;SDS011;1901;48.172;12.824;2023-09-19T01:28:31;2.53;;;1.80;;
3771;SDS011;1901;48.172;12.824;2023-09-19T01:31:03;2.63;;;1.97;;
3771;SDS011;1901;48.172;12.824;2023-09-19T01:36:12;4.57;;;2.40;;
3771;SDS011;1901;48.172;12.824;2023-09-19T01:38:40;3.83;;;2.23;;
3771;SDS011;1901;48.172;12.824;2023-09-19T01:41:09;2.97;;;1.93;;
3771;SDS011;1901;48.172;12.824;2023-09-19T01:43:40;6.70;;;2.30;;
3771;SDS011;1901;48.172;12.824;2023-09-19T01:46:12;4.07;;;1.93;;
3771;SDS011;1901;48.172;12.824;2023-09-19T01:48:41;2.80;;;2.10;;
3771;SDS011;1901;48.172;12.824;2023-09-19T01:51:12;4.13;;;2.30;;
3771;SDS011;1901;48.172;12.824;2023-09-19T01:53:43;3.73;;;2.27;;
3771;SDS011;1901;48.172;12.824;2023-09-19T01:56:12;3.33;;;2.03;;
3771;SDS011;1901;48.172;12.824;2023-09-19T01:58:41;5.27;;;2.30;;
3771;SDS011;1901;48.172;12.824;2023-09-19T02:01:11;3.70;;;2.20;;
3771;SDS011;1901;48.172;12.824;2023-09-19T02:03:39;2.63;;;1.80;;
3771;SDS011;1901;48.172;12.824;2023-09-19T02:06:12;3.83;;;2.30;;
3771;SDS011;1901;48.172;12.824;2023-09-19T02:08:40;4.03;;;2.47;;
3771;SDS011;1901;48.172;12.824;2023-09-19T02:11:08;4.53;;;1.70;;
3771;SDS011;1901;48.172;12.824;2023-09-19T02:13:36;2.43;;;2.20;;
3771;SDS011;1901;48.172;12.824;2023-09-19T02:16:04;4.23;;;2.20;;
3771;SDS011;1901;48.172;12.824;2023-09-19T02:18:33;4.53;;;1.90;;
3771;SDS011;1901;48.172;12.824;2023-09-19T02:21:01;3.90;;;1.97;;
3771;SDS011;1901;48.172;12.824;2023-09-19T02:23:29;2.67;;;1.93;;
3771;SDS011;1901;48.172;12.824;2023-09-19T02:25:56;3.37;;;2.13;;
3771;SDS011;1901;48.172;12.824;2023-09-19T02:28:25;4.40;;;2.43;;
3771;SDS011;1901;48.172;12.824;2023-09-19T02:30:55;2.77;;;2.10;;
3771;SDS011;1901;48.172;12.824;2023-09-19T02:33:22;3.00;;;2.20;;
3771;SDS011;1901;48.172;12.824;2023-09-19T02:35:53;3.60;;;2.00;;
3771;SDS011;1901;48.172;12.824;2023-09-19T02:38:22;2.60;;;2.10;;
3771;SDS011;1901;48.172;12.824;2023-09-19T02:40:50;3.70;;;2.20;;
3771;SDS011;1901;48.172;12.824;2023-09-19T02:43:17;3.40;;;2.23;;
3771;SDS011;1901;48.172;12.824;2023-09-19T02:45:44;3.83;;;1.90;;
3771;SDS011;1901;48.172;12.824;2023-09-19T02:48:14;4.30;;;2.00;;
3771;SDS011;1901;48.172;12.824;2023-09-19T02:50:41;2.60;;;2.00;;
3771;SDS011;1901;48.172;12.824;2023-09-19T02:53:10;5.77;;;2.47;;
3771;SDS011;1901;48.172;12.824;2023-09-19T02:55:39;3.73;;;2.37;;
3771;SDS011;1901;48.172;12.824;2023-09-19T02:58:06;5.53;;;2.47;;
3771;SDS011;1901;48.172;12.824;2023-09-19T03:00:35;3.60;;;2.20;;
3771;SDS011;1901;48.172;12.824;2023-09-19T03:03:03;4.13;;;2.20;;
3771;SDS011;1901;48.172;12.824;2023-09-19T03:05:31;3.17;;;2.60;;
3771;SDS011;1901;48.172;12.824;2023-09-19T03:07:58;5.13;;;2.43;;
3771;SDS011;1901;48.172;12.824;2023-09-19T03:10:28;4.40;;;2.33;;
3771;SDS011;1901;48.172;12.824;2023-09-19T03:12:56;3.57;;;2.40;;
3771;SDS011;1901;48.172;12.824;2023-09-19T03:15:24;2.80;;;2.03;;
3771;SDS011;1901;48.172;12.824;2023-09-19T03:17:52;4.10;;;2.40;;
3771;SDS011;1901;48.172;12.824;2023-09-19T03:20:19;3.13;;;2.57;;
3771;SDS011;1901;48.172;12.824;2023-09-19T03:22:47;4.30;;;2.30;;
3771;SDS011;1901;48.172;12.824;2023-09-19T03:25:14;3.70;;;2.43;;
3771;SDS011;1901;48.172;12.824;2023-09-19T03:27:43;2.83;;;2.30;;
3771;SDS011;1901;48.172;12.824;2023-09-19T03:30:11;7.20;;;2.97;;
3771;SDS011;1901;48.172;12.824;2023-09-19T03:32:43;2.80;;;2.10;;
3771;SDS011;1901;48.172;12.824;2023-09-19T03:35:10;5.10;;;2.33;;
3771;SDS011;1901;48.172;12.824;2023-09-19T03:37:39;2.30;;;2.10;;
3771;SDS011;1901;48.172;12.824;2023-09-19T03:40:07;4.63;;;2.60;;
3771;SDS011;1901;48.172;12.824;2023-09-19T03:42:37;2.90;;;2.40;;
3771;SDS011;1901;48.172;12.824;2023-09-19T03:45:06;3.27;;;2.50;;
3771;SDS011;1901;48.172;12.824;2023-09-19T03:47:37;3.63;;;2.70;;
3771;SDS011;1901;48.172;12.824;2023-09-19T03:50:04;2.73;;;2.10;;
3771;SDS011;1901;48.172;12.824;2023-09-19T03:52:33;4.30;;;2.93;;
3771;SDS011;1901;48.172;12.824;2023-09-19T03:55:00;4.73;;;2.20;;
3771;SDS011;1901;48.172;12.824;2023-09-19T03:57:29;3.17;;;2.33;;
3771;SDS011;1901;48.172;12.824;2023-09-19T03:59:56;2.50;;;2.03;;
3771;SDS011;1901;48.172;12.824;2023-09-19T04:02:25;4.93;;;2.60;;
3771;SDS011;1901;48.172;12.824;2023-09-19T04:04:58;4.37;;;2.40;;
3771;SDS011;1901;48.172;12.824;2023-09-19T04:07:25;4.27;;;3.17;;
3771;SDS011;1901;48.172;12.824;2023-09-19T04:09:54;4.23;;;2.70;;
3771;SDS011;1901;48.172;12.824;2023-09-19T04:12:21;3.13;;;2.20;;
3771;SDS011;1901;48.172;12.824;2023-09-19T04:14:48;5.97;;;2.43;;
3771;SDS011;1901;48.172;12.824;2023-09-19T04:17:16;3.77;;;3.03;;
3771;SDS011;1901;48.172;12.824;2023-09-19T04:19:45;5.30;;;2.30;;
3771;SDS011;1901;48.172;12.824;2023-09-19T04:22:12;3.90;;;2.47;;
3771;SDS011;1901;48.172;12.824;2023-09-19T04:24:39;4.90;;;3.07;;
3771;SDS011;1901;48.172;12.824;2023-09-19T04:27:06;13.67;;;2.63;;
3771;SDS011;1901;48.172;12.824;2023-09-19T04:29:34;4.23;;;2.17;;
3771;SDS011;1901;48.172;12.824;2023-09-19T04:32:03;2.50;;;2.30;;
3771;SDS011;1901;48.172;12.824;2023-09-19T04:34:31;3.33;;;1.90;;
3771;SDS011;1901;48.172;12.824;2023-09-19T04:37:00;6.30;;;2.83;;
3771;SDS011;1901;48.172;12.824;2023-09-19T04:39:28;3.10;;;2.70;;
3771;SDS011;1901;48.172;12.824;2023-09-19T04:41:55;2.73;;;2.40;;
3771;SDS011;1901;48.172;12.824;2023-09-19T04:44:24;9.07;;;3.00;;
3771;SDS011;1901;48.172;12.824;2023-09-19T04:46:51;3.20;;;2.37;;
3771;SDS011;1901;48.172;12.824;2023-09-19T04:49:18;2.60;;;1.80;;
3771;SDS011;1901;48.172;12.824;2023-09-19T04:51:46;3.20;;;2.20;;
3771;SDS011;1901;48.172;12.824;2023-09-19T04:54:14;2.30;;;2.10;;
3771;SDS011;1901;48.172;12.824;2023-09-19T04:56:43;2.90;;;2.23;;
3771;SDS011;1901;48.172;12.824;2023-09-19T04:59:10;3.10;;;2.23;;
3771;SDS011;1901;48.172;12.824;2023-09-19T05:01:37;4.10;;;2.20;;
3771;SDS011;1901;48.172;12.824;2023-09-19T05:04:04;3.03;;;2.73;;
3771;SDS011;1901;48.172;12.824;2023-09-19T05:06:31;3.00;;;2.70;;
3771;SDS011;1901;48.172;12.824;2023-09-19T05:08:59;4.00;;;2.73;;
3771;SDS011;1901;48.172;12.824;2023-09-19T05:11:29;4.90;;;2.33;;
3771;SDS011;1901;48.172;12.824;2023-09-19T05:13:56;5.30;;;2.60;;
3771;SDS011;1901;48.172;12.824;2023-09-19T05:16:28;12.33;;;9.27;;
3771;SDS011;1901;48.172;12.824;2023-09-19T05:18:56;6.20;;;5.67;;
3771;SDS011;1901;48.172;12.824;2023-09-19T05:21:25;3.20;;;2.90;;
3771;SDS011;1901;48.172;12.824;2023-09-19T05:23:53;4.00;;;3.07;;
3771;SDS011;1901;48.172;12.824;2023-09-19T05:26:21;4.20;;;2.97;;
3771;SDS011;1901;48.172;12.824;2023-09-19T05:28:49;7.93;;;2.80;;
3771;SDS011;1901;48.172;12.824;2023-09-19T05:31:17;6.60;;;2.60;;
3771;SDS011;1901;48.172;12.824;2023-09-19T05:33:45;5.60;;;3.10;;
3771;SDS011;1901;48.172;12.824;2023-09-19T05:36:12;6.53;;;2.87;;
3771;SDS011;1901;48.172;12.824;2023-09-19T05:38:40;4.60;;;2.30;;
3771;SDS011;1901;48.172;12.824;2023-09-19T05:41:09;4.10;;;2.57;;
3771;SDS011;1901;48.172;12.824;2023-09-19T05:43:38;3.73;;;2.60;;
3771;SDS011;1901;48.172;12.824;2023-09-19T05:46:07;2.97;;;2.67;;
3771;SDS011;1901;48.172;12.824;2023-09-19T05:48:34;15.30;;;2.87;;
3771;SDS011;1901;48.172;12.824;2023-09-19T05:51:02;2.60;;;2.17;;
3771;SDS011;1901;48.172;12.824;2023-09-19T05:53:29;3.60;;;2.20;;
3771;SDS011;1901;48.172;12.824;2023-09-19T05:55:56;5.30;;;2.30;;
3771;SDS011;1901;48.172;12.824;2023-09-19T05:58:26;2.40;;;2.20;;
3771;SDS011;1901;48.172;12.824;2023-09-19T06:00:53;3.97;;;2.37;;
3771;SDS011;1901;48.172;12.824;2023-09-19T06:03:23;2.80;;;2.00;;
3771;SDS011;1901;48.172;12.824;2023-09-19T06:05:51;1.70;;;1.60;;
3771;SDS011;1901;48.172;12.824;2023-09-19T06:08:22;3.30;;;1.93;;
3771;SDS011;1901;48.172;12.824;2023-09-19T06:10:51;6.13;;;2.13;;
3771;SDS011;1901;48.172;12.824;2023-09-19T06:13:18;7.13;;;2.47;;
3771;SDS011;1901;48.172;12.824;2023-09-19T06:15:45;4.53;;;2.20;;
3771;SDS011;1901;48.172;12.824;2023-09-19T06:18:13;2.80;;;1.53;;
3771;SDS011;1901;48.172;12.824;2023-09-19T06:20:45;2.27;;;1.80;;
3771;SDS011;1901;48.172;12.824;2023-09-19T06:23:13;5.40;;;2.00;;
3771;SDS011;1901;48.172;12.824;2023-09-19T06:25:40;2.60;;;1.50;;
3771;SDS011;1901;48.172;12.824;2023-09-19T06:28:09;3.30;;;1.80;;
3771;SDS011;1901;48.172;12.824;2023-09-19T06:30:37;3.13;;;1.50;;
3771;SDS011;1901;48.172;12.824;2023-09-19T06:33:06;2.37;;;2.00;;
3771;SDS011;1901;48.172;12.824;2023-09-19T06:35:33;2.47;;;1.50;;
3771;SDS011;1901;48.172;12.824;2023-09-19T06:38:03;4.43;;;1.53;;
3771;SDS011;1901;48.172;12.824;2023-09-19T06:40:30;2.10;;;1.40;;
3771;SDS011;1901;48.172;12.824;2023-09-19T06:42:59;1.97;;;1.53;;
3771;SDS011;1901;48.172;12.824;2023-09-19T06:45:27;3.17;;;1.40;;
3771;SDS011;1901;48.172;12.824;2023-09-19T06:47:54;2.33;;;1.60;;
3771;SDS011;1901;48.172;12.824;2023-09-19T06:50:23;2.70;;;1.70;;
3771;SDS011;1901;48.172;12.824;2023-09-19T06:52:50;1.90;;;1.50;;
3771;SDS011;1901;48.172;12.824;2023-09-19T06:55:20;2.10;;;1.70;;
3771;SDS011;1901;48.172;12.824;2023-09-19T06:57:50;5.40;;;2.10;;
3771;SDS011;1901;48.172;12.824;2023-09-19T07:00:19;5.10;;;2.27;;
3771;SDS011;1901;48.172;12.824;2023-09-19T07:02:54;2.40;;;1.73;;
3771;SDS011;1901;48.172;12.824;2023-09-19T07:05:22;2.93;;;1.40;;
3771;SDS011;1901;48.172;12.824;2023-09-19T07:07:49;1.70;;;1.57;;
3771;SDS011;1901;48.172;12.824;2023-09-19T07:10:16;2.60;;;1.53;;
3771;SDS011;1901;48.172;12.824;2023-09-19T07:12:46;2.90;;;1.70;;
3771;SDS011;1901;48.172;12.824;2023-09-19T07:15:13;2.13;;;1.63;;
3771;SDS011;1901;48.172;12.824;2023-09-19T07:17:40;1.57;;;1.23;;
3771;SDS011;1901;48.172;12.824;2023-09-19T07:20:08;2.60;;;1.80;;
3771;SDS011;1901;48.172;12.824;2023-09-19T07:22:41;3.20;;;1.43;;
3771;SDS011;1901;48.172;12.824;2023-09-19T07:25:08;2.50;;;1.60;;
3771;SDS011;1901;48.172;12.824;2023-09-19T07:27:35;1.80;;;1.40;;
3771;SDS011;1901;48.172;12.824;2023-09-19T07:30:04;3.27;;;1.67;;
3771;SDS011;1901;48.172;12.824;2023-09-19T07:32:33;1.90;;;1.60;;
3771;SDS011;1901;48.172;12.824;2023-09-19T07:35:01;2.17;;;1.50;;
3771;SDS011;1901;48.172;12.824;2023-09-19T07:37:29;3.10;;;1.50;;
3771;SDS011;1901;48.172;12.824;2023-09-19T07:39:58;2.57;;;1.40;;
3771;SDS011;1901;48.172;12.824;2023-09-19T07:42:25;3.90;;;1.60;;
3771;SDS011;1901;48.172;12.824;2023-09-19T07:44:52;2.60;;;1.60;;
3771;SDS011;1901;48.172;12.824;2023-09-19T07:47:21;2.10;;;1.40;;
3771;SDS011;1901;48.172;12.824;2023-09-19T07:49:48;3.30;;;2.00;;
3771;SDS011;1901;48.172;12.824;2023-09-19T07:52:15;3.53;;;1.93;;
3771;SDS011;1901;48.172;12.824;2023-09-19T07:54:42;5.00;;;1.97;;
3771;SDS011;1901;48.172;12.824;2023-09-19T07:57:10;2.47;;;1.97;;
3771;SDS011;1901;48.172;12.824;2023-09-19T07:59:37;2.97;;;1.80;;
3771;SDS011;1901;48.172;12.824;2023-09-19T08:02:07;2.40;;;1.40;;
3771;SDS011;1901;48.172;12.824;2023-09-19T08:04:41;3.00;;;1.40;;
3771;SDS011;1901;48.172;12.824;2023-09-19T08:07:11;1.73;;;1.17;;
3771;SDS011;1901;48.172;12.824;2023-09-19T08:09:38;3.00;;;1.80;;
3771;SDS011;1901;48.172;12.824;2023-09-19T08:12:05;2.73;;;2.17;;
3771;SDS011;1901;48.172;12.824;2023-09-19T08:14:35;4.80;;;1.90;;
3771;SDS011;1901;48.172;12.824;2023-09-19T08:17:02;8.13;;;1.53;;
3771;SDS011;1901;48.172;12.824;2023-09-19T08:19:30;1.97;;;1.67;;
3771;SDS011;1901;48.172;12.824;2023-09-19T08:21:59;1.87;;;1.40;;
3771;SDS011;1901;48.172;12.824;2023-09-19T08:24:26;2.00;;;1.50;;
3771;SDS011;1901;48.172;12.824;2023-09-19T08:26:53;2.10;;;1.40;;
3771;SDS011;1901;48.172;12.824;2023-09-19T08:29:21;2.63;;;1.93;;
3771;SDS011;1901;48.172;12.824;2023-09-19T08:31:52;2.27;;;1.50;;
3771;SDS011;1901;48.172;12.824;2023-09-19T08:34:19;2.50;;;1.33;;
3771;SDS011;1901;48.172;12.824;2023-09-19T08:36:47;2.03;;;1.60;;
3771;SDS011;1901;48.172;12.824;2023-09-19T08:39:15;3.70;;;1.77;;
3771;SDS011;1901;48.172;12.824;2023-09-19T08:41:44;1.70;;;1.37;;
3771;SDS011;1901;48.172;12.824;2023-09-19T08:44:11;1.93;;;1.53;;
3771;SDS011;1901;48.172;12.824;2023-09-19T08:46:38;2.23;;;1.40;;
3771;SDS011;1901;48.172;12.824;2023-09-19T08:49:08;2.13;;;1.40;;
3771;SDS011;1901;48.172;12.824;2023-09-19T08:51:41;1.73;;;1.40;;
3771;SDS011;1901;48.172;12.824;2023-09-19T08:54:12;3.33;;;1.53;;
3771;SDS011;1901;48.172;12.824;2023-09-19T08:56:45;2.07;;;1.47;;
3771;SDS011;1901;48.172;12.824;2023-09-19T08:59:13;2.10;;;1.90;;
3771;SDS011;1901;48.172;12.824;2023-09-19T09:01:41;1.93;;;1.23;;
3771;SDS011;1901;48.172;12.824;2023-09-19T09:04:09;2.10;;;1.67;;
3771;SDS011;1901;48.172;12.824;2023-09-19T09:06:38;1.67;;;1.40;;
3771;SDS011;1901;48.172;12.824;2023-09-19T09:09:05;4.60;;;1.83;;
3771;SDS011;1901;48.172;12.824;2023-09-19T09:11:34;3.93;;;1.40;;
3771;SDS011;1901;48.172;12.824;2023-09-19T09:14:03;2.60;;;1.40;;
3771;SDS011;1901;48.172;12.824;2023-09-19T09:16:33;2.60;;;1.70;;
3771;SDS011;1901;48.172;12.824;2023-09-19T09:19:00;2.43;;;1.53;;
3771;SDS011;1901;48.172;12.824;2023-09-19T09:21:27;2.70;;;1.37;;
3771;SDS011;1901;48.172;12.824;2023-09-19T09:23:55;3.93;;;1.50;;
3771;SDS011;1901;48.172;12.824;2023-09-19T09:26:40;2.67;;;1.50;;
3771;SDS011;1901;48.172;12.824;2023-09-19T09:29:10;5.10;;;2.70;;
3771;SDS011;1901;48.172;12.824;2023-09-19T09:31:37;1.80;;;1.40;;
3771;SDS011;1901;48.172;12.824;2023-09-19T09:34:06;2.60;;;1.60;;
3771;SDS011;1901;48.172;12.824;2023-09-19T09:36:34;4.10;;;1.60;;
3771;SDS011;1901;48.172;12.824;2023-09-19T09:39:02;2.57;;;1.30;;
3771;SDS011;1901;48.172;12.824;2023-09-19T09:41:41;1.87;;;1.50;;
3771;SDS011;1901;48.172;12.824;2023-09-19T09:44:13;2.47;;;1.70;;
3771;SDS011;1901;48.172;12.824;2023-09-19T09:46:42;4.40;;;1.20;;
3771;SDS011;1901;48.172;12.824;2023-09-19T09:49:24;2.27;;;1.27;;
3771;SDS011;1901;48.172;12.824;2023-09-19T09:51:58;2.70;;;1.43;;
3771;SDS011;1901;48.172;12.824;2023-09-19T09:54:30;1.80;;;1.30;;
3771;SDS011;1901;48.172;12.824;2023-09-19T09:57:02;2.43;;;1.20;;
3771;SDS011;1901;48.172;12.824;2023-09-19T09:59:49;2.30;;;1.30;;
3771;SDS011;1901;48.172;12.824;2023-09-19T10:02:18;2.43;;;1.60;;
3771;SDS011;1901;48.172;12.824;2023-09-19T10:04:49;2.73;;;1.20;;
3771;SDS011;1901;48.172;12.824;2023-09-19T10:07:34;1.80;;;1.53;;
3771;SDS011;1901;48.172;12.824;2023-09-19T10:10:03;3.63;;;1.57;;
3771;SDS011;1901;48.172;12.824;2023-09-19T10:12:41;1.67;;;1.30;;
3771;SDS011;1901;48.172;12.824;2023-09-19T10:15:10;2.43;;;1.30;;
3771;SDS011;1901;48.172;12.824;2023-09-19T10:17:40;2.03;;;1.30;;
3771;SDS011;1901;48.172;12.824;2023-09-19T10:20:11;2.90;;;1.30;;
3771;SDS011;1901;48.172;12.824;2023-09-19T10:22:52;1.60;;;1.30;;
3771;SDS011;1901;48.172;12.824;2023-09-19T10:25:24;2.57;;;1.30;;
3771;SDS011;1901;48.172;12.824;2023-09-19T10:27:54;1.40;;;1.10;;
3771;SDS011;1901;48.172;12.824;2023-09-19T10:30:24;2.40;;;1.40;;
3771;SDS011;1901;48.172;12.824;2023-09-19T10:32:56;4.80;;;1.50;;
3771;SDS011;1901;48.172;12.824;2023-09-19T10:35:24;1.70;;;1.40;;
3771;SDS011;1901;48.172;12.824;2023-09-19T10:37:52;2.93;;;1.30;;
3771;SDS011;1901;48.172;12.824;2023-09-19T10:40:21;1.63;;;1.30;;
3771;SDS011;1901;48.172;12.824;2023-09-19T10:42:55;3.37;;;1.40;;
3771;SDS011;1901;48.172;12.824;2023-09-19T10:45:26;1.50;;;1.33;;
3771;SDS011;1901;48.172;12.824;2023-09-19T10:47:54;4.00;;;1.60;;
3771;SDS011;1901;48.172;12.824;2023-09-19T10:50:22;1.70;;;1.43;;
3771;SDS011;1901;48.172;12.824;2023-09-19T10:52:50;2.30;;;2.00;;
3771;SDS011;1901;48.172;12.824;2023-09-19T10:55:25;2.20;;;1.47;;
3771;SDS011;1901;48.172;12.824;2023-09-19T10:57:55;2.50;;;1.20;;
3771;SDS011;1901;48.172;12.824;2023-09-19T11:03:19;3.00;;;1.30;;
3771;SDS011;1901;48.172;12.824;2023-09-19T11:06:04;2.90;;;1.30;;
3771;SDS011;1901;48.172;12.824;2023-09-19T11:08:56;1.77;;;1.50;;
3771;SDS011;1901;48.172;12.824;2023-09-19T11:11:40;2.93;;;1.50;;
3771;SDS011;1901;48.172;12.824;2023-09-19T11:14:28;5.10;;;1.10;;
3771;SDS011;1901;48.172;12.824;2023-09-19T11:25:42;3.37;;;1.50;;
3771;SDS011;1901;48.172;12.824;2023-09-19T11:28:28;2.33;;;1.40;;
3771;SDS011;1901;48.172;12.824;2023-09-19T11:30:56;2.23;;;1.67;;
3771;SDS011;1901;48.172;12.824;2023-09-19T11:33:24;3.53;;;1.43;;
3771;SDS011;1901;48.172;12.824;2023-09-19T11:35:59;2.80;;;1.20;;
3771;SDS011;1901;48.172;12.824;2023-09-19T11:46:52;2.00;;;1.40;;
3771;SDS011;1901;48.172;12.824;2023-09-19T11:49:25;1.80;;;1.40;;
3771;SDS011;1901;48.172;12.824;2023-09-19T11:51:57;1.60;;;1.30;;
3771;SDS011;1901;48.172;12.824;2023-09-19T11:54:27;6.60;;;1.40;;
3771;SDS011;1901;48.172;12.824;2023-09-19T11:56:56;2.53;;;1.30;;
3771;SDS011;1901;48.172;12.824;2023-09-19T11:59:25;1.53;;;1.30;;
3771;SDS011;1901;48.172;12.824;2023-09-19T12:01:53;2.97;;;1.60;;
3771;SDS011;1901;48.172;12.824;2023-09-19T12:04:32;1.90;;;1.40;;
3771;SDS011;1901;48.172;12.824;2023-09-19T12:07:02;1.63;;;1.40;;
3771;SDS011;1901;48.172;12.824;2023-09-19T12:09:31;1.67;;;1.23;;
3771;SDS011;1901;48.172;12.824;2023-09-19T12:11:58;1.60;;;1.30;;
3771;SDS011;1901;48.172;12.824;2023-09-19T12:14:26;3.40;;;1.50;;
3771;SDS011;1901;48.172;12.824;2023-09-19T12:16:54;1.90;;;1.63;;
3771;SDS011;1901;48.172;12.824;2023-09-19T12:19:21;2.17;;;1.40;;
3771;SDS011;1901;48.172;12.824;2023-09-19T12:21:55;1.80;;;1.67;;
3771;SDS011;1901;48.172;12.824;2023-09-19T12:24:24;1.97;;;1.53;;
3771;SDS011;1901;48.172;12.824;2023-09-19T12:26:51;1.77;;;1.30;;
3771;SDS011;1901;48.172;12.824;2023-09-19T12:29:19;2.53;;;1.47;;
3771;SDS011;1901;48.172;12.824;2023-09-19T12:31:54;1.50;;;1.17;;
3771;SDS011;1901;48.172;12.824;2023-09-19T12:34:23;2.10;;;1.40;;
3771;SDS011;1901;48.172;12.824;2023-09-19T12:37:08;1.87;;;1.47;;
3771;SDS011;1901;48.172;12.824;2023-09-19T12:39:41;7.13;;;1.83;;
3771;SDS011;1901;48.172;12.824;2023-09-19T12:42:09;3.33;;;1.43;;
3771;SDS011;1901;48.172;12.824;2023-09-19T12:44:40;3.57;;;1.30;;
3771;SDS011;1901;48.172;12.824;2023-09-19T12:47:10;7.13;;;2.03;;
3771;SDS011;1901;48.172;12.824;2023-09-19T12:52:21;1.77;;;1.30;;
3771;SDS011;1901;48.172;12.824;2023-09-19T12:54:51;1.80;;;1.30;;
3771;SDS011;1901;48.172;12.824;2023-09-19T12:57:23;2.13;;;1.33;;
3771;SDS011;1901;48.172;12.824;2023-09-19T12:59:51;2.00;;;1.30;;
3771;SDS011;1901;48.172;12.824;2023-09-19T13:02:20;3.37;;;1.53;;
3771;SDS011;1901;48.172;12.824;2023-09-19T13:04:52;3.87;;;1.40;;
3771;SDS011;1901;48.172;12.824;2023-09-19T13:07:39;2.83;;;1.30;;
3771;SDS011;1901;48.172;12.824;2023-09-19T13:10:09;2.50;;;1.63;;
3771;SDS011;1901;48.172;12.824;2023-09-19T13:12:36;1.70;;;1.60;;
3771;SDS011;1901;48.172;12.824;2023-09-19T13:15:07;3.23;;;1.57;;
3771;SDS011;1901;48.172;12.824;2023-09-19T13:17:46;2.90;;;1.37;;
3771;SDS011;1901;48.172;12.824;2023-09-19T13:20:21;1.67;;;1.27;;
3771;SDS011;1901;48.172;12.824;2023-09-19T13:22:52;1.70;;;1.30;;
3771;SDS011;1901;48.172;12.824;2023-09-19T13:25:23;2.47;;;1.60;;
3771;SDS011;1901;48.172;12.824;2023-09-19T13:27:53;2.93;;;1.50;;
3771;SDS011;1901;48.172;12.824;2023-09-19T13:30:21;2.70;;;1.67;;
3771;SDS011;1901;48.172;12.824;2023-09-19T13:32:51;4.10;;;1.57;;
3771;SDS011;1901;48.172;12.824;2023-09-19T13:35:19;2.73;;;1.23;;
3771;SDS011;1901;48.172;12.824;2023-09-19T13:37:47;3.20;;;1.50;;
3771;SDS011;1901;48.172;12.824;2023-09-19T13:40:16;2.40;;;1.50;;
3771;SDS011;1901;48.172;12.824;2023-09-19T13:42:44;3.73;;;1.60;;
3771;SDS011;1901;48.172;12.824;2023-09-19T13:45:11;3.03;;;1.37;;
3771;SDS011;1901;48.172;12.824;2023-09-19T13:47:40;2.97;;;1.40;;
3771;SDS011;1901;48.172;12.824;2023-09-19T13:50:09;2.90;;;1.30;;
3771;SDS011;1901;48.172;12.824;2023-09-19T13:52:36;1.63;;;1.47;;
3771;SDS011;1901;48.172;12.824;2023-09-19T13:55:04;2.03;;;1.40;;
3771;SDS011;1901;48.172;12.824;2023-09-19T13:57:32;1.93;;;1.43;;
3771;SDS011;1901;48.172;12.824;2023-09-19T13:59:59;4.30;;;1.30;;
3771;SDS011;1901;48.172;12.824;2023-09-19T14:02:26;2.00;;;1.67;;
3771;SDS011;1901;48.172;12.824;2023-09-19T14:04:55;2.70;;;1.40;;
3771;SDS011;1901;48.172;12.824;2023-09-19T14:07:25;3.00;;;1.40;;
3771;SDS011;1901;48.172;12.824;2023-09-19T14:09:52;1.50;;;1.30;;
3771;SDS011;1901;48.172;12.824;2023-09-19T14:12:19;1.70;;;1.30;;
3771;SDS011;1901;48.172;12.824;2023-09-19T14:14:46;1.90;;;1.50;;
3771;SDS011;1901;48.172;12.824;2023-09-19T14:17:16;7.33;;;2.73;;
3771;SDS011;1901;48.172;12.824;2023-09-19T14:19:43;3.83;;;1.57;;
3771;SDS011;1901;48.172;12.824;2023-09-19T14:22:10;1.60;;;1.20;;
3771;SDS011;1901;48.172;12.824;2023-09-19T14:24:40;5.90;;;1.50;;
3771;SDS011;1901;48.172;12.824;2023-09-19T14:27:07;2.47;;;1.50;;
3771;SDS011;1901;48.172;12.824;2023-09-19T14:29:35;4.57;;;2.37;;
3771;SDS011;1901;48.172;12.824;2023-09-19T14:32:03;3.30;;;2.00;;
3771;SDS011;1901;48.172;12.824;2023-09-19T14:34:30;3.93;;;3.20;;
3771;SDS011;1901;48.172;12.824;2023-09-19T14:36:58;3.23;;;1.87;;
3771;SDS011;1901;48.172;12.824;2023-09-19T14:39:25;3.13;;;1.20;;
3771;SDS011;1901;48.172;12.824;2023-09-19T14:41:53;2.63;;;1.50;;
3771;SDS011;1901;48.172;12.824;2023-09-19T14:44:20;1.80;;;1.40;;
3771;SDS011;1901;48.172;12.824;2023-09-19T14:46:48;3.50;;;1.80;;
3771;SDS011;1901;48.172;12.824;2023-09-19T14:49:15;3.00;;;1.40;;
3771;SDS011;1901;48.172;12.824;2023-09-19T14:51:42;1.70;;;1.30;;
3771;SDS011;1901;48.172;12.824;2023-09-19T14:54:10;8.80;;;1.60;;
3771;SDS011;1901;48.172;12.824;2023-09-19T14:56:37;2.10;;;1.50;;
3771;SDS011;1901;48.172;12.824;2023-09-19T14:59:06;2.53;;;1.43;;
3771;SDS011;1901;48.172;12.824;2023-09-19T15:01:36;1.60;;;1.40;;
3771;SDS011;1901;48.172;12.824;2023-09-19T15:04:03;1.70;;;1.43;;
3771;SDS011;1901;48.172;12.824;2023-09-19T15:06:31;1.70;;;1.30;;
3771;SDS011;1901;48.172;12.824;2023-09-19T15:08:59;8.90;;;1.50;;
3771;SDS011;1901;48.172;12.824;2023-09-19T15:11:26;2.70;;;1.60;;
3771;SDS011;1901;48.172;12.824;2023-09-19T15:13:53;1.70;;;1.27;;
3771;SDS011;1901;48.172;12.824;2023-09-19T15:16:21;2.10;;;1.50;;
3771;SDS011;1901;48.172;12.824;2023-09-19T15:18:48;3.30;;;1.70;;
3771;SDS011;1901;48.172;12.824;2023-09-19T15:21:17;4.17;;;2.10;;
3771;SDS011;1901;48.172;12.824;2023-09-19T15:23:44;2.17;;;1.40;;
3771;SDS011;1901;48.172;12.824;2023-09-19T15:26:12;2.40;;;1.80;;
3771;SDS011;1901;48.172;12.824;2023-09-19T15:28:39;3.27;;;1.80;;
3771;SDS011;1901;48.172;12.824;2023-09-19T15:31:07;2.10;;;1.80;;
3771;SDS011;1901;48.172;12.824;2023-09-19T15:33:36;4.00;;;2.10;;
3771;SDS011;1901;48.172;12.824;2023-09-19T15:36:03;2.23;;;1.70;;
3771;SDS011;1901;48.172;12.824;2023-09-19T15:38:31;2.60;;;1.40;;